Time;durP1;ratioP1;P1;durP2;ratioP2;P2;SDS_P1;SDS_P2;PMS_P1;PMS_P2;Temp;Humidity;BMP_temperature;BMP_pressure;BME280_temperature;BME280_humidity;BME280_pressure;Samples;Min_cycle;Max_cycle;Signal;HPM_P1;HPM_P2
2022/09/14 00:00:47;;;;;;;2.90;1.05;;;15.30;99.90;;;;;;5010298;28;20568;-75
2022/09/14 00:03:18;;;;;;;3.15;1.38;;;15.30;99.90;;;;;;4856233;28;20936;-75
2022/09/14 00:05:45;;;;;;;4.05;0.90;;;15.30;99.90;;;;;;4870544;28;20384;-75
2022/09/14 00:08:18;;;;;;;15.13;1.48;;;15.30;99.90;;;;;;4869957;28;20458;-74
2022/09/14 00:10:53;;;;;;;2.92;1.20;;;15.30;99.90;;;;;;4875935;28;20545;-74
2022/09/14 00:13:26;;;;;;;1.73;0.85;;;15.30;99.90;;;;;;4849052;28;20234;-73
2022/09/14 00:15:55;;;;;;;1.83;0.95;;;15.30;99.90;;;;;;4872277;28;20429;-74
2022/09/14 00:18:23;;;;;;;4.20;1.00;;;15.30;99.90;;;;;;4962543;28;20133;-72
2022/09/14 00:20:49;;;;;;;2.22;0.90;;;15.30;99.90;;;;;;5032357;28;20524;-72
2022/09/14 00:23:16;;;;;;;2.42;1.10;;;15.30;99.90;;;;;;5065668;28;20045;-73
2022/09/14 00:25:45;;;;;;;4.45;1.17;;;15.30;99.90;;;;;;4889752;28;20391;-74
2022/09/14 00:28:12;;;;;;;3.00;1.10;;;15.20;99.90;;;;;;5033294;28;20041;-72
2022/09/14 00:30:41;;;;;;;1.92;0.93;;;15.20;99.90;;;;;;5046293;28;20048;-72
2022/09/14 00:33:08;;;;;;;3.35;1.27;;;15.20;99.90;;;;;;4932294;28;20237;-73
2022/09/14 00:35:41;;;;;;;2.33;1.08;;;15.20;99.90;;;;;;4839083;28;20322;-73
2022/09/14 00:38:08;;;;;;;4.15;1.35;;;15.10;99.90;;;;;;4875397;28;20718;-74
2022/09/14 00:40:35;;;;;;;3.88;1.55;;;15.10;99.90;;;;;;5049371;28;20057;-74
2022/09/14 00:43:02;;;;;;;3.95;1.50;;;15.10;99.90;;;;;;5030514;28;20048;-72
2022/09/14 00:45:29;;;;;;;2.10;1.30;;;15.00;99.90;;;;;;5029914;28;20044;-72
2022/09/14 00:47:55;;;;;;;4.32;1.30;;;14.90;99.90;;;;;;5036736;28;20135;-72
2022/09/14 00:50:22;;;;;;;2.45;1.55;;;14.90;99.90;;;;;;5025796;28;20136;-72
2022/09/14 00:52:50;;;;;;;5.05;1.67;;;14.90;99.90;;;;;;5014571;28;20292;-74
2022/09/14 00:55:40;;;;;;;2.55;1.40;;;14.90;99.90;;;;;;4834592;28;20324;-74
2022/09/14 00:58:09;;;;;;;2.45;1.30;;;14.90;99.90;;;;;;4861553;28;20448;-74
2022/09/14 01:00:41;;;;;;;4.47;1.88;;;14.80;99.90;;;;;;4853123;28;20341;-73
2022/09/14 01:03:08;;;;;;;8.27;1.40;;;14.90;99.90;;;;;;4859034;28;20513;-73
2022/09/14 01:05:46;;;;;;;5.63;1.83;;;14.90;99.90;;;;;;5048368;28;20076;-73
2022/09/14 01:08:27;;;;;;;3.95;1.58;;;14.90;99.90;;;;;;4925316;28;20052;-73
2022/09/14 01:11:20;;;;;;;2.33;1.23;;;14.90;99.90;;;;;;4988630;28;20041;-76
2022/09/14 01:14:04;;;;;;;2.83;1.60;;;14.90;99.90;;;;;;5047998;28;20030;-73
2022/09/14 01:16:40;;;;;;;3.72;2.03;;;14.90;99.90;;;;;;4944018;28;20040;-75
2022/09/14 01:19:26;;;;;;;3.65;1.70;;;14.90;99.90;;;;;;4843588;28;20275;-74
2022/09/14 01:21:56;;;;;;;3.28;1.70;;;15.00;99.90;;;;;;4842995;28;20298;-76
2022/09/14 01:24:29;;;;;;;4.15;1.95;;;15.00;99.90;;;;;;4849000;28;20288;-74
2022/09/14 01:27:07;;;;;;;5.07;2.38;;;15.00;99.90;;;;;;4841307;28;20338;-74
2022/09/14 01:29:48;;;;;;;3.58;2.10;;;14.90;99.90;;;;;;4848754;28;20449;-74
2022/09/14 01:32:24;;;;;;;2.75;1.65;;;15.10;99.90;;;;;;5036069;28;20052;-73
2022/09/14 01:35:00;;;;;;;3.17;1.88;;;15.00;99.90;;;;;;5046609;28;20025;-73
2022/09/14 01:37:29;;;;;;;5.05;2.30;;;15.00;99.90;;;;;;5050834;28;20449;-75
2022/09/14 01:40:02;;;;;;;5.82;1.48;;;15.10;99.90;;;;;;5042367;28;20044;-73
2022/09/14 01:42:30;;;;;;;3.47;1.40;;;15.10;99.90;;;;;;5041167;28;20044;-73
2022/09/14 01:45:00;;;;;;;3.15;1.63;;;14.90;99.90;;;;;;5057808;22;20048;-74
2022/09/14 01:47:50;;;;;;;6.22;1.40;;;15.00;99.90;;;;;;5086331;28;20101;-74
2022/09/14 01:50:23;;;;;;;3.00;1.48;;;15.10;99.90;;;;;;5078767;28;20574;-74
2022/09/14 01:53:05;;;;;;;3.83;1.73;;;15.00;99.90;;;;;;5081423;28;20048;-74
2022/09/14 01:55:44;;;;;;;5.18;1.95;;;15.00;99.90;;;;;;5100387;28;20051;-74
2022/09/14 01:58:17;;;;;;;3.90;1.65;;;15.00;99.90;;;;;;5072234;28;20040;-73
2022/09/14 02:00:44;;;;;;;5.03;2.40;;;15.00;99.90;;;;;;5067870;28;20039;-74
2022/09/14 02:03:22;;;;;;;3.97;1.85;;;15.00;99.90;;;;;;5074438;28;20044;-74
2022/09/14 02:05:48;;;;;;;4.50;2.15;;;15.00;99.90;;;;;;5072434;28;20059;-74
2022/09/14 02:08:14;;;;;;;4.88;2.28;;;15.00;99.90;;;;;;5082928;28;20036;-74
2022/09/14 02:10:39;;;;;;;3.63;2.25;;;15.00;99.90;;;;;;5083518;28;20501;-74
2022/09/14 02:13:06;;;;;;;6.63;1.85;;;15.00;99.90;;;;;;5084864;28;20036;-74
2022/09/14 02:15:34;;;;;;;4.35;1.75;;;15.00;99.90;;;;;;5079226;28;20032;-74
2022/09/14 02:18:00;;;;;;;5.95;2.20;;;15.10;99.90;;;;;;5080534;28;20046;-74
2022/09/14 02:20:31;;;;;;;6.35;1.77;;;15.10;99.90;;;;;;5079003;28;20131;-74
2022/09/14 02:22:57;;;;;;;6.18;1.92;;;15.10;99.90;;;;;;5070086;28;20051;-74
2022/09/14 02:25:22;;;;;;;3.80;1.83;;;15.20;99.90;;;;;;5077680;28;20036;-74
2022/09/14 02:27:48;;;;;;;4.65;1.60;;;15.20;99.90;;;;;;5077550;28;20048;-74
2022/09/14 02:30:15;;;;;;;2.75;0.98;;;15.20;99.90;;;;;;5087483;28;20622;-74
2022/09/14 02:32:54;;;;;;;2.35;1.20;;;15.30;99.90;;;;;;5061025;28;20094;-74
2022/09/14 02:35:19;;;;;;;4.35;1.60;;;15.30;99.90;;;;;;5084718;28;20120;-74
2022/09/14 02:38:23;;;;;;;3.47;1.50;;;15.30;99.90;;;;;;5082194;28;20120;-74
2022/09/14 02:41:04;;;;;;;2.28;1.20;;;15.30;99.90;;;;;;5082040;28;20059;-74
2022/09/14 02:44:06;;;;;;;3.95;1.33;;;15.40;99.90;;;;;;5078412;28;20049;-74
2022/09/14 02:46:42;;;;;;;2.67;1.20;;;15.40;99.90;;;;;;5097967;28;20155;-74
2022/09/14 02:49:14;;;;;;;5.20;1.80;;;15.40;99.90;;;;;;5078643;28;20116;-74
2022/09/14 02:52:09;;;;;;;5.65;1.92;;;15.40;99.90;;;;;;5085927;28;20040;-74
2022/09/14 02:54:57;;;;;;;8.85;1.42;;;15.40;99.90;;;;;;5092649;28;20131;-74
2022/09/14 02:57:23;;;;;;;6.53;2.13;;;15.40;99.90;;;;;;5083802;28;20047;-74
2022/09/14 02:59:49;;;;;;;5.63;1.50;;;15.30;99.90;;;;;;5083712;28;20040;-74
2022/09/14 03:02:15;;;;;;;4.35;1.45;;;15.40;99.90;;;;;;5080607;28;20048;-74
2022/09/14 03:04:41;;;;;;;3.70;1.60;;;15.40;99.90;;;;;;5098750;28;20090;-74
2022/09/14 03:07:07;;;;;;;3.80;1.85;;;15.40;99.90;;;;;;5078516;28;20040;-74
2022/09/14 03:09:33;;;;;;;3.75;1.75;;;15.40;99.90;;;;;;5083601;28;20048;-74
2022/09/14 03:11:59;;;;;;;5.32;1.60;;;15.40;99.90;;;;;;5084821;28;20043;-73
2022/09/14 03:14:24;;;;;;;4.20;1.40;;;15.40;99.90;;;;;;5086838;28;20052;-73
2022/09/14 03:16:50;;;;;;;6.50;2.07;;;15.40;99.90;;;;;;5073971;28;20481;-74
2022/09/14 03:19:16;;;;;;;2.92;1.50;;;15.40;99.90;;;;;;5081188;28;20147;-74
2022/09/14 03:21:42;;;;;;;2.40;1.25;;;15.40;99.90;;;;;;5054657;28;20044;-74
2022/09/14 03:24:07;;;;;;;3.08;1.50;;;15.50;99.90;;;;;;5085753;28;20036;-73
2022/09/14 03:26:35;;;;;;;4.13;1.42;;;15.50;99.90;;;;;;5080509;28;20043;-74
2022/09/14 03:29:02;;;;;;;3.97;1.35;;;15.50;99.90;;;;;;5078194;28;20042;-74
2022/09/14 03:31:28;;;;;;;2.50;1.40;;;15.50;99.90;;;;;;5084185;28;20055;-74
2022/09/14 03:33:56;;;;;;;5.40;1.55;;;15.50;99.90;;;;;;5069759;28;20036;-74
2022/09/14 03:36:24;;;;;;;2.58;1.25;;;15.50;99.90;;;;;;5083370;28;20413;-74
2022/09/14 03:38:51;;;;;;;3.05;1.50;;;15.50;99.90;;;;;;5080542;28;20161;-74
2022/09/14 03:41:18;;;;;;;4.15;1.60;;;15.50;99.90;;;;;;5079626;28;20043;-74
2022/09/14 03:43:45;;;;;;;5.45;1.55;;;15.50;99.90;;;;;;5075067;28;20129;-74
2022/09/14 03:46:17;;;;;;;3.33;1.25;;;15.50;99.90;;;;;;5078712;28;20057;-73
2022/09/14 03:48:43;;;;;;;3.72;1.60;;;15.50;99.90;;;;;;5083232;28;20143;-74
2022/09/14 03:51:11;;;;;;;3.45;1.75;;;15.50;99.90;;;;;;5095504;28;20094;-74
2022/09/14 03:53:37;;;;;;;4.10;1.20;;;15.50;99.90;;;;;;5079598;28;20047;-74
2022/09/14 03:56:09;;;;;;;4.00;1.45;;;15.50;99.90;;;;;;5093516;28;20119;-74
2022/09/14 03:58:35;;;;;;;2.45;1.25;;;15.50;99.90;;;;;;5079487;28;20373;-74
2022/09/14 04:01:09;;;;;;;4.35;1.27;;;15.50;99.90;;;;;;5083491;28;20044;-74
2022/09/14 04:03:35;;;;;;;2.90;1.40;;;15.60;99.90;;;;;;5080729;28;20431;-74
2022/09/14 04:06:04;;;;;;;;;;;15.60;99.90;;;;;;5084543;28;20101;-73
2022/09/14 04:08:31;;;;;;;4.05;1.45;;;15.60;99.90;;;;;;5077773;28;19922;-74
2022/09/14 04:10:56;;;;;;;2.15;1.20;;;15.50;99.90;;;;;;5074794;28;20467;-74
2022/09/14 04:13:22;;;;;;;2.53;1.40;;;15.50;99.90;;;;;;5081210;28;20258;-74
2022/09/14 04:15:58;;;;;;;4.03;1.35;;;15.60;99.90;;;;;;5101884;28;20052;-74
2022/09/14 04:18:25;;;;;;;5.38;1.77;;;15.60;99.90;;;;;;5073557;28;20456;-73
2022/09/14 04:21:04;;;;;;;4.80;1.08;;;15.60;99.90;;;;;;5077832;28;20224;-74
2022/09/14 04:23:30;;;;;;;3.08;1.10;;;15.60;99.90;;;;;;5073781;28;20515;-74
2022/09/14 04:25:56;;;;;;;9.43;1.63;;;15.60;99.90;;;;;;5076970;28;20036;-74
2022/09/14 04:28:23;;;;;;;6.30;1.30;;;15.60;99.90;;;;;;5082674;28;20044;-74
2022/09/14 04:30:59;;;;;;;2.08;1.20;;;15.60;99.90;;;;;;5085675;28;20077;-74
2022/09/14 04:33:27;;;;;;;3.42;1.05;;;15.60;99.90;;;;;;5073750;28;20051;-74
2022/09/14 04:36:03;;;;;;;4.35;1.13;;;15.60;99.90;;;;;;5081935;28;20168;-74
2022/09/14 04:38:30;;;;;;;2.17;0.93;;;15.60;99.90;;;;;;5080040;28;20035;-74
2022/09/14 04:40:56;;;;;;;4.68;1.17;;;15.60;99.90;;;;;;5081302;28;20044;-74
2022/09/14 04:43:23;;;;;;;;;;;15.70;99.90;;;;;;5068534;28;20390;-74
2022/09/14 04:45:49;;;;;;;3.58;0.90;;;15.60;99.90;;;;;;5082521;28;19924;-73
2022/09/14 04:48:14;;;;;;;3.85;1.48;;;15.60;99.90;;;;;;5100000;28;20040;-74
2022/09/14 04:50:40;;;;;;;2.65;1.10;;;15.60;99.90;;;;;;5075233;28;20127;-74
2022/09/14 04:53:06;;;;;;;1.83;0.85;;;15.60;99.90;;;;;;5081549;28;20119;-74
2022/09/14 04:55:32;;;;;;;4.57;1.10;;;15.60;99.90;;;;;;5078537;28;20050;-74
2022/09/14 04:57:57;;;;;;;3.53;0.93;;;15.70;99.90;;;;;;5075567;28;20274;-74
2022/09/14 05:00:23;;;;;;;3.50;1.17;;;15.60;99.90;;;;;;5074618;28;20052;-74
2022/09/14 05:02:48;;;;;;;3.45;1.20;;;15.60;99.90;;;;;;5072996;28;20346;-74
2022/09/14 05:05:14;;;;;;;4.25;1.55;;;15.70;99.90;;;;;;5083114;28;20544;-74
2022/09/14 05:07:40;;;;;;;4.70;1.60;;;15.70;99.90;;;;;;5082690;28;20133;-74
2022/09/14 05:10:07;;;;;;;3.72;1.60;;;15.70;99.90;;;;;;5087833;28;20123;-74
2022/09/14 05:12:33;;;;;;;2.95;1.48;;;15.60;99.90;;;;;;5082529;28;20428;-73
2022/09/14 05:14:58;;;;;;;4.95;1.83;;;15.70;99.90;;;;;;5087179;28;20047;-74
2022/09/14 05:17:24;;;;;;;4.55;1.45;;;15.70;99.90;;;;;;5084205;28;20036;-76
2022/09/14 05:19:50;;;;;;;3.88;1.20;;;15.70;99.90;;;;;;5075265;28;20689;-75
2022/09/14 05:22:16;;;;;;;2.33;1.00;;;15.70;99.90;;;;;;5079584;28;20044;-76
2022/09/14 05:24:42;;;;;;;4.75;1.42;;;15.70;99.90;;;;;;5081648;28;20052;-76
2022/09/14 05:27:07;;;;;;;2.13;1.08;;;15.70;99.90;;;;;;5082529;28;20113;-76
2022/09/14 05:29:33;;;;;;;1.85;0.93;;;15.70;99.90;;;;;;5083563;28;20032;-76
2022/09/14 05:31:59;;;;;;;2.15;1.00;;;15.70;99.90;;;;;;5082835;28;20062;-78
2022/09/14 05:34:25;;;;;;;4.18;1.40;;;15.70;99.90;;;;;;5087352;28;20036;-78
2022/09/14 05:36:50;;;;;;;3.85;1.00;;;15.70;99.90;;;;;;5082032;28;20032;-74
2022/09/14 05:39:16;;;;;;;4.63;1.35;;;15.70;99.90;;;;;;5082928;28;20043;-74
2022/09/14 05:41:41;;;;;;;3.00;1.17;;;15.70;99.90;;;;;;5085452;28;20442;-74
2022/09/14 05:44:07;;;;;;;5.70;1.60;;;15.70;99.90;;;;;;5089224;28;20469;-74
2022/09/14 05:46:33;;;;;;;2.72;1.30;;;15.70;99.90;;;;;;5077064;28;20090;-74
2022/09/14 05:48:59;;;;;;;2.25;1.50;;;15.70;99.90;;;;;;5080413;28;20094;-74
2022/09/14 05:51:26;;;;;;;2.08;1.05;;;15.70;99.90;;;;;;5077542;28;20121;-74
2022/09/14 05:53:57;;;;;;;2.65;1.35;;;15.70;99.90;;;;;;5085357;28;20035;-74
2022/09/14 05:56:27;;;;;;;3.65;1.27;;;15.60;99.90;;;;;;5085208;28;20176;-74
2022/09/14 05:58:53;;;;;;;4.07;1.33;;;15.70;99.90;;;;;;5082053;28;20384;-73
2022/09/14 06:01:25;;;;;;;4.15;1.58;;;15.80;99.90;;;;;;5079679;28;20131;-74
2022/09/14 06:03:53;;;;;;;3.67;1.85;;;15.70;99.90;;;;;;5078423;28;20087;-74
2022/09/14 06:06:20;;;;;;;4.55;1.60;;;15.80;99.90;;;;;;5073831;28;20051;-74
2022/09/14 06:08:48;;;;;;;;;;;15.80;99.90;;;;;;5073348;28;20039;-74
2022/09/14 06:11:17;;;;;;;2.88;1.35;;;15.80;99.90;;;;;;5062626;28;19951;-74
2022/09/14 06:13:43;;;;;;;2.88;1.10;;;15.80;99.90;;;;;;5082977;28;20048;-74
2022/09/14 06:16:12;;;;;;;4.40;1.80;;;15.80;99.90;;;;;;5081465;28;20077;-74
2022/09/14 06:18:39;;;;;;;3.67;1.63;;;15.80;99.90;;;;;;5083571;28;20086;-74
2022/09/14 06:21:05;;;;;;;3.88;1.55;;;15.90;99.90;;;;;;5081855;28;20044;-74
2022/09/14 06:23:31;;;;;;;5.65;1.50;;;15.90;99.90;;;;;;5077183;28;20044;-74
2022/09/14 06:25:59;;;;;;;2.83;1.15;;;15.90;99.90;;;;;;5074767;28;20043;-74
2022/09/14 06:28:26;;;;;;;3.45;1.80;;;15.90;99.90;;;;;;5077318;28;20059;-74
2022/09/14 06:30:51;;;;;;;3.22;1.33;;;15.90;99.90;;;;;;5074147;28;20128;-74
2022/09/14 06:33:18;;;;;;;3.65;1.55;;;16.00;99.90;;;;;;5075304;28;20039;-74
2022/09/14 06:35:54;;;;;;;5.82;1.52;;;16.00;99.90;;;;;;5079931;28;20364;-74
2022/09/14 06:38:20;;;;;;;8.27;1.85;;;16.00;99.90;;;;;;5076632;28;20036;-74
2022/09/14 06:40:54;;;;;;;4.88;1.35;;;16.00;99.90;;;;;;5079986;28;20063;-73
2022/09/14 06:43:20;;;;;;;3.75;1.35;;;16.10;99.90;;;;;;5072921;28;20127;-74
2022/09/14 06:46:04;;;;;;;6.75;1.67;;;16.00;99.90;;;;;;5077272;28;20488;-74
2022/09/14 06:48:33;;;;;;;7.35;1.38;;;16.10;99.90;;;;;;5084684;28;20060;-74
2022/09/14 06:50:59;;;;;;;4.88;1.88;;;16.10;99.90;;;;;;5074938;28;20389;-74
2022/09/14 06:53:27;;;;;;;3.10;1.02;;;16.10;99.90;;;;;;5082876;28;20119;-74
2022/09/14 06:55:57;;;;;;;2.95;1.60;;;16.10;99.90;;;;;;5069925;28;20562;-74
2022/09/14 06:58:23;;;;;;;6.22;1.90;;;16.10;99.90;;;;;;5074543;28;20044;-74
2022/09/14 07:00:49;;;;;;;6.10;1.42;;;16.20;99.90;;;;;;5073302;28;20489;-74
2022/09/14 07:03:14;;;;;;;3.30;1.20;;;16.20;99.90;;;;;;5084867;28;20042;-74
2022/09/14 07:05:40;;;;;;;3.33;1.33;;;16.20;99.90;;;;;;5067338;28;20074;-74
2022/09/14 07:08:05;;;;;;;2.70;1.50;;;16.20;99.90;;;;;;5064432;28;20047;-74
2022/09/14 07:10:31;;;;;;;5.20;1.50;;;16.20;99.90;;;;;;5082143;28;20320;-74
2022/09/14 07:12:59;;;;;;;4.15;0.88;;;16.30;99.90;;;;;;5074211;28;20342;-75
2022/09/14 07:15:25;;;;;;;3.03;1.10;;;16.40;99.90;;;;;;5070956;28;20040;-74
2022/09/14 07:17:51;;;;;;;;;;;16.40;99.90;;;;;;5077677;28;20040;-74
2022/09/14 07:20:16;;;;;;;5.82;1.30;;;16.30;99.90;;;;;;5085189;28;19939;-74
2022/09/14 07:22:42;;;;;;;5.03;1.10;;;16.50;99.90;;;;;;5080969;28;20157;-75
2022/09/14 07:25:08;;;;;;;4.03;1.00;;;16.50;99.90;;;;;;5076013;28;20101;-75
2022/09/14 07:27:34;;;;;;;;;;;16.60;99.90;;;;;;5074044;28;20040;-74
2022/09/14 07:30:00;;;;;;;2.22;1.10;;;16.60;99.90;;;;;;5083584;28;20288;-74
2022/09/14 07:32:26;;;;;;;5.10;0.98;;;16.60;99.90;;;;;;5080580;28;20143;-75
2022/09/14 07:34:52;;;;;;;2.70;0.90;;;16.60;99.90;;;;;;5090178;27;20051;-74
2022/09/14 07:37:17;;;;;;;2.50;0.70;;;16.70;99.90;;;;;;5073363;28;20040;-74
2022/09/14 07:39:43;;;;;;;1.60;1.00;;;16.70;99.90;;;;;;5067265;28;20098;-75
2022/09/14 07:42:09;;;;;;;4.50;1.08;;;16.70;99.90;;;;;;5080000;28;20715;-74
2022/09/14 07:44:34;;;;;;;4.78;1.60;;;16.70;99.90;;;;;;5079491;28;20048;-75
2022/09/14 07:47:00;;;;;;;4.32;0.60;;;16.80;99.90;;;;;;5092933;22;20442;-74
2022/09/14 07:49:25;;;;;;;1.83;0.50;;;16.80;99.90;;;;;;5072094;28;20052;-74
2022/09/14 07:51:51;;;;;;;3.55;0.80;;;16.80;99.90;;;;;;5067214;28;20040;-74
2022/09/14 07:54:18;;;;;;;1.48;0.63;;;16.80;99.90;;;;;;5066122;28;20667;-74
2022/09/14 07:56:43;;;;;;;;;;;16.90;99.90;;;;;;5061590;28;20409;-74
2022/09/14 07:59:10;;;;;;;6.45;0.75;;;16.90;99.90;;;;;;5057040;28;20994;-74
2022/09/14 08:01:36;;;;;;;1.55;0.40;;;16.90;99.90;;;;;;5056126;28;20051;-74
2022/09/14 08:04:02;;;;;;;2.13;0.52;;;16.90;99.90;;;;;;5054465;28;20458;-74
2022/09/14 08:06:28;;;;;;;2.00;0.52;;;17.00;99.90;;;;;;5050694;28;20045;-74
2022/09/14 08:08:55;;;;;;;2.45;0.50;;;17.00;99.90;;;;;;5057557;28;20072;-74
2022/09/14 08:11:25;;;;;;;3.00;0.30;;;17.00;99.90;;;;;;5060041;28;20529;-74
2022/09/14 08:13:55;;;;;;;2.25;0.32;;;17.00;99.90;;;;;;5064650;28;20039;-74
2022/09/14 08:16:21;;;;;;;2.28;0.68;;;17.10;99.90;;;;;;5065503;28;20048;-74
2022/09/14 08:18:51;;;;;;;2.08;0.52;;;17.10;99.90;;;;;;5063985;28;20404;-74
2022/09/14 08:21:17;;;;;;;3.92;0.57;;;17.10;99.90;;;;;;5065163;28;20092;-74
2022/09/14 08:23:44;;;;;;;3.38;0.55;;;17.20;99.90;;;;;;5049857;28;20525;-74
2022/09/14 08:26:28;;;;;;;3.10;0.32;;;17.20;99.90;;;;;;5057320;28;20045;-74
2022/09/14 08:28:55;;;;;;;3.38;0.40;;;17.20;99.90;;;;;;5063073;28;20032;-74
2022/09/14 08:31:25;;;;;;;2.75;0.63;;;17.30;99.90;;;;;;5061246;28;20671;-74
2022/09/14 08:33:57;;;;;;;4.10;0.60;;;17.30;99.90;;;;;;5072096;28;20502;-74
2022/09/14 08:36:24;;;;;;;3.13;0.50;;;17.40;99.90;;;;;;5071221;28;20032;-74
2022/09/14 08:38:50;;;;;;;2.60;0.65;;;17.40;99.90;;;;;;5066315;28;20394;-74
2022/09/14 08:41:39;;;;;;;5.43;0.43;;;17.50;99.90;;;;;;5059159;28;20044;-74
2022/09/14 08:44:24;;;;;;;3.53;0.60;;;17.50;99.90;;;;;;5059491;28;20048;-74
2022/09/14 08:47:11;;;;;;;4.18;0.50;;;17.60;99.90;;;;;;5048362;28;20043;-74
2022/09/14 08:50:04;;;;;;;2.90;0.30;;;17.70;99.90;;;;;;5055711;28;20421;-74
2022/09/14 08:52:33;;;;;;;4.95;0.68;;;17.80;99.90;;;;;;5065959;28;20036;-74
2022/09/14 08:55:01;;;;;;;1.02;0.20;;;17.90;99.90;;;;;;5071059;28;20036;-74
2022/09/14 08:57:47;;;;;;;2.05;0.20;;;17.90;99.90;;;;;;5067189;28;20432;-74
2022/09/14 09:00:20;;;;;;;3.60;0.28;;;17.90;99.90;;;;;;5064905;28;20505;-74
2022/09/14 09:03:19;;;;;;;2.33;0.75;;;17.90;99.90;;;;;;5068610;28;20490;-74
2022/09/14 09:05:53;;;;;;;2.42;0.40;;;17.90;99.90;;;;;;5065119;28;20037;-74
2022/09/14 09:08:24;;;;;;;2.95;0.50;;;17.90;99.90;;;;;;5069544;28;20044;-74
2022/09/14 09:10:53;;;;;;;1.40;0.20;;;17.90;99.90;;;;;;5066232;28;20067;-74
2022/09/14 09:13:28;;;;;;;1.70;0.35;;;17.90;99.90;;;;;;5068342;28;20048;-74
2022/09/14 09:15:58;;;;;;;1.52;0.30;;;17.90;99.90;;;;;;5069228;28;20036;-75
2022/09/14 09:18:48;;;;;;;2.28;0.30;;;18.00;99.90;;;;;;5067543;28;20213;-74
2022/09/14 09:21:27;;;;;;;1.77;0.30;;;18.10;99.90;;;;;;5064506;28;20052;-74
2022/09/14 09:24:24;;;;;;;3.20;0.70;;;18.10;99.90;;;;;;5041338;28;20037;-71
2022/09/14 09:26:49;;;;;;;2.37;0.20;;;18.20;99.90;;;;;;5068269;28;20039;-74
2022/09/14 09:29:15;;;;;;;0.73;0.25;;;18.20;99.90;;;;;;5064925;28;20036;-79
2022/09/14 09:31:49;;;;;;;1.52;0.30;;;18.20;99.90;;;;;;5057443;28;20111;-78
2022/09/14 09:34:20;;;;;;;3.60;0.40;;;18.30;99.90;;;;;;5065759;28;20094;-75
2022/09/14 09:36:48;;;;;;;1.88;0.30;;;18.40;99.90;;;;;;5066494;28;20482;-71
2022/09/14 09:39:14;;;;;;;2.08;0.47;;;18.40;99.90;;;;;;5065402;28;20040;-74
2022/09/14 09:42:00;;;;;;;5.55;1.10;;;18.50;99.90;;;;;;5062977;28;20097;-74
2022/09/14 09:44:26;;;;;;;2.83;0.30;;;18.60;99.90;;;;;;5066748;28;20040;-73
2022/09/14 09:46:58;;;;;;;2.78;0.43;;;18.70;99.90;;;;;;5069732;28;20071;-72
2022/09/14 09:49:38;;;;;;;3.97;0.28;;;18.70;99.90;;;;;;5061539;28;20402;-71
2022/09/14 09:52:14;;;;;;;2.88;0.20;;;18.90;99.90;;;;;;5067578;28;20033;-72
2022/09/14 09:54:49;;;;;;;1.05;0.35;;;18.90;99.90;;;;;;5060878;28;20105;-70
2022/09/14 09:57:22;;;;;;;1.65;0.32;;;19.00;99.90;;;;;;5072260;28;20077;-71
2022/09/14 09:59:47;;;;;;;3.75;0.47;;;19.00;99.90;;;;;;5067498;28;20351;-71
2022/09/14 10:02:25;;;;;;;1.05;0.30;;;19.00;99.90;;;;;;5073699;28;20043;-71
2022/09/14 10:05:20;;;;;;;2.13;0.45;;;19.00;99.90;;;;;;5075096;28;20131;-71
2022/09/14 10:07:49;;;;;;;1.17;0.30;;;19.10;99.90;;;;;;5063462;28;20040;-71
2022/09/14 10:10:18;;;;;;;1.83;0.38;;;19.20;99.90;;;;;;5054635;28;20044;-71
2022/09/14 10:12:52;;;;;;;7.75;0.75;;;19.20;99.90;;;;;;5066343;28;20058;-71
2022/09/14 10:15:25;;;;;;;2.30;0.32;;;19.30;99.90;;;;;;5071214;28;20390;-71
2022/09/14 10:18:09;;;;;;;2.17;0.65;;;19.30;99.90;;;;;;5072508;28;20056;-71
2022/09/14 10:20:53;;;;;;;1.67;0.30;;;19.40;99.90;;;;;;5067064;28;20044;-71
2022/09/14 10:23:18;;;;;;;2.03;0.63;;;19.40;99.90;;;;;;5063131;28;20104;-70
2022/09/14 10:25:50;;;;;;;3.63;0.85;;;19.30;99.90;;;;;;5065421;28;20544;-71
2022/09/14 10:28:32;;;;;;;3.83;0.40;;;19.30;99.90;;;;;;5070142;28;20078;-71
2022/09/14 10:31:08;;;;;;;0.77;0.22;;;19.40;99.90;;;;;;5068147;28;20398;-71
2022/09/14 10:33:34;;;;;;;1.50;0.40;;;19.40;99.90;;;;;;5063365;28;20450;-71
2022/09/14 10:36:11;;;;;;;;;;;19.40;99.90;;;;;;5063901;28;20036;-68
2022/09/14 10:38:37;;;;;;;7.80;0.70;;;19.40;99.90;;;;;;5076922;28;20321;-69
2022/09/14 10:41:44;;;;;;;2.45;0.40;;;19.30;99.90;;;;;;5065474;28;20134;-68
2022/09/14 10:44:31;;;;;;;2.88;0.45;;;19.40;99.90;;;;;;5037092;28;20130;-71
2022/09/14 10:47:15;;;;;;;5.18;0.50;;;19.40;99.90;;;;;;5057664;28;20127;-70
2022/09/14 10:50:07;;;;;;;1.35;0.50;;;19.50;99.90;;;;;;5056289;28;20525;-70
2022/09/14 10:52:54;;;;;;;1.13;0.28;;;19.40;99.90;;;;;;5026566;28;20415;-70
2022/09/14 10:55:55;;;;;;;5.25;0.35;;;19.40;99.90;;;;;;5060546;28;20498;-71
2022/09/14 10:58:44;;;;;;;1.83;0.50;;;19.40;99.90;;;;;;5058327;28;20036;-70
2022/09/14 11:01:47;;;;;;;3.35;0.45;;;19.40;99.90;;;;;;5060067;28;20048;-71
2022/09/14 11:04:50;;;;;;;5.05;0.50;;;19.40;99.90;;;;;;5063928;28;20414;-70
2022/09/14 11:07:45;;;;;;;2.05;0.30;;;19.40;99.90;;;;;;5060245;28;20072;-71
2022/09/14 11:10:37;;;;;;;2.53;0.47;;;19.30;99.90;;;;;;5039880;28;20083;-70
2022/09/14 11:13:47;;;;;;;1.67;0.40;;;19.30;99.90;;;;;;5062664;28;20041;-71
2022/09/14 11:16:46;;;;;;;2.88;0.65;;;19.40;99.90;;;;;;5056292;28;20037;-71
2022/09/14 11:19:18;;;;;;;8.63;2.72;;;19.40;99.90;;;;;;5073638;28;20056;-71
2022/09/14 11:22:03;;;;;;;3.75;0.90;;;19.50;99.90;;;;;;5060221;28;20131;-70
2022/09/14 11:24:48;;;;;;;1.30;0.47;;;19.60;99.90;;;;;;5063504;28;20110;-71
2022/09/14 11:27:35;;;;;;;1.42;0.38;;;19.70;99.90;;;;;;5057762;28;20075;-71
2022/09/14 11:30:21;;;;;;;3.28;0.80;;;19.80;99.90;;;;;;5044728;28;20391;-71
2022/09/14 11:33:06;;;;;;;3.20;0.35;;;19.80;99.90;;;;;;5055855;28;20052;-71
2022/09/14 11:35:44;;;;;;;3.05;0.52;;;19.80;99.90;;;;;;5056639;28;20049;-71
2022/09/14 11:38:19;;;;;;;4.30;0.50;;;19.80;99.90;;;;;;5064052;28;20067;-70
2022/09/14 11:40:46;;;;;;;2.70;0.50;;;19.80;99.90;;;;;;5063441;28;20363;-71
2022/09/14 11:43:21;;;;;;;4.03;0.50;;;19.70;99.90;;;;;;5065314;28;20511;-70
2022/09/14 11:45:51;;;;;;;4.27;0.53;;;19.70;99.90;;;;;;5063651;28;20120;-71
2022/09/14 11:48:29;;;;;;;3.55;0.70;;;19.70;99.90;;;;;;5067474;28;20044;-70
2022/09/14 11:51:10;;;;;;;2.47;0.47;;;19.70;99.90;;;;;;5059487;28;20047;-70
2022/09/14 11:53:35;;;;;;;3.45;0.40;;;19.60;99.90;;;;;;5059260;28;20238;-71
2022/09/14 11:56:02;;;;;;;4.55;0.30;;;19.70;99.90;;;;;;5053683;28;20040;-71
2022/09/14 11:58:29;;;;;;;3.25;0.32;;;19.70;99.90;;;;;;5061892;28;20216;-71
2022/09/14 12:01:26;;;;;;;3.30;0.70;;;19.70;99.90;;;;;;5058521;28;20036;-71
2022/09/14 12:04:06;;;;;;;1.70;0.57;;;19.80;99.90;;;;;;5052860;28;20131;-71
2022/09/14 12:06:34;;;;;;;1.88;0.65;;;19.90;99.90;;;;;;5064361;28;20407;-71
2022/09/14 12:09:20;;;;;;;2.53;0.55;;;20.10;99.90;;;;;;5063601;28;20393;-71
2022/09/14 12:11:59;;;;;;;2.15;0.30;;;20.20;99.90;;;;;;5074389;28;20203;-70
2022/09/14 12:14:26;;;;;;;2.17;0.30;;;20.40;99.90;;;;;;5064999;28;20087;-71
2022/09/14 12:17:02;;;;;;;2.70;0.73;;;20.50;99.90;;;;;;5066910;28;20482;-70
2022/09/14 12:19:30;;;;;;;1.50;0.20;;;20.60;99.90;;;;;;5076675;28;20040;-70
2022/09/14 12:22:16;;;;;;;1.20;0.60;;;20.70;99.90;;;;;;5075254;28;20040;-70
2022/09/14 12:24:43;;;;;;;2.38;0.43;;;20.80;99.90;;;;;;4980836;28;20787;-70
2022/09/14 12:27:20;;;;;;;1.73;0.25;;;20.80;99.90;;;;;;5063371;28;20336;-69
2022/09/14 12:29:46;;;;;;;3.08;0.40;;;20.80;99.90;;;;;;5069047;28;20056;-70
2022/09/14 12:32:37;;;;;;;1.23;0.43;;;20.80;99.90;;;;;;5065091;28;20482;-70
2022/09/14 12:35:31;;;;;;;1.50;0.45;;;20.80;99.90;;;;;;5060187;28;20079;-70
2022/09/14 12:37:56;;;;;;;5.03;0.70;;;20.80;99.90;;;;;;5064159;28;20036;-70
2022/09/14 12:40:35;;;;;;;3.95;0.43;;;20.70;99.90;;;;;;5063750;28;20036;-70
2022/09/14 12:43:31;;;;;;;3.47;0.68;;;20.60;99.90;;;;;;5070377;28;20078;-69
2022/09/14 12:46:18;;;;;;;3.47;0.45;;;20.60;99.90;;;;;;5058948;28;20142;-70
2022/09/14 12:48:51;;;;;;;0.73;0.20;;;20.70;99.90;;;;;;5074954;28;20055;-70
2022/09/14 12:51:20;;;;;;;1.23;0.45;;;20.60;99.90;;;;;;5059809;28;20123;-70
2022/09/14 12:53:56;;;;;;;1.48;0.35;;;20.70;99.90;;;;;;5070114;28;20495;-70
2022/09/14 12:56:27;;;;;;;10.35;0.60;;;20.60;99.90;;;;;;5066036;28;20044;-70
2022/09/14 12:59:11;;;;;;;4.65;0.90;;;20.60;99.90;;;;;;5069298;28;20032;-69
2022/09/14 13:01:54;;;;;;;2.95;0.30;;;20.70;99.90;;;;;;5054942;28;20045;-70
2022/09/14 13:04:26;;;;;;;1.77;0.50;;;20.50;99.90;;;;;;5083366;28;20168;-70
2022/09/14 13:06:54;;;;;;;1.70;0.43;;;20.50;99.90;;;;;;5092731;28;20164;-70
2022/09/14 13:09:28;;;;;;;3.60;0.50;;;20.40;99.90;;;;;;5070844;28;20041;-70
2022/09/14 13:12:04;;;;;;;2.75;0.40;;;20.30;99.90;;;;;;5066731;28;20124;-69
2022/09/14 13:14:46;;;;;;;1.33;0.30;;;20.20;99.90;;;;;;5069855;28;20494;-70